Aeroporto :
LOGIN :

Iscrizione | Disclaimer

   EN    FR    IT 

 










Sommario :    VFR   VFR Marginale   IFR   IFR Intensivo   IFR Molto Intensivo
Visibilità : 
Base nubi : 
>= 8 km
>= 3000ft
5 / 8 km
1000 / 3000 ft
1500m / 5 km
500 / 1000 ft
800 / 1500m
200 / 500 ft
< 800m
< 200 ft
Simboli :   Temporali  Nebbia  Neve Forte  Precipitazioni Forti  Vento > 20 kt
SIGMETs :   Varie  Temporali  Ghiacco  Turbolenza  Onda orograficha  Ceneri Vulcaniche






- Altitudine del aeroporto : 3 ft
- Codice IATA : DHR


EHKD - Den Helder De Kooy

ULTIMO METAR :
  • 221139Z AUTO 32003KT 280V020 8000 BR FEW004 OVC010 08/08 Q1036 GRN 34004KT 6000 FEW002 SCT003 BKN015 TEMPO 2000 BR SCT002 BKN003

METARs OBSOLETI :
  • 221127Z AUTO 33003KT 290V360 8000 BR FEW004 SCT005 BKN006 09/08 Q1036 YLO 34004KT 6000 FEW002 SCT003 BKN015 TEMPO 2000 BR SCT002 BKN003
  • 221116Z AUTO VRB02KT 8000 BR SCT004 SCT005 OVC012 08/08 Q1036 YLO 34004KT 6000 FEW002 SCT003 BKN015 TEMPO 2000 BR SCT002 BKN003
  • 221111Z AUTO 33003KT 300V010 8000 BR FEW004 SCT005 OVC013 08/08 Q1036 YLO 34004KT 6000 FEW002 SCT003 BKN015 TEMPO 2000 BR SCT002 BKN003
  • 221059Z AUTO 34003KT 310V010 8000 BR ////// 08/08 Q1036 BLU 34004KT 6000 FEW002 SCT003 BKN015 TEMPO 2000 BR SCT002 BKN003
  • 221039Z AUTO 34004KT 290V020 6000 BR FEW003 BKN004 BKN006 08/08 Q1036 YLO 34004KT 6000 FEW002 SCT003 BKN015 TEMPO 2000 BR SCT002 BKN003
  • 221030Z AUTO 34004KT 300V010 5000 BR FEW002 BKN004 OVC013 08/08 Q1036 YLO 33005KT 2000 BR FEW002 BKN003 TEMPO 4500 FEW003 SCT008 BKN020
  • 221017Z AUTO 34004KT 300V030 5000 BR SCT004 BKN005 BKN006 08/08 Q1036 YLO 33005KT 3000 BR BKN003 OVC004 TEMPO 1500 DZ SCT002 BKN003
  • 221009Z AUTO 34004KT 300V020 5000 BR FEW003 BKN012 OVC037 08/08 Q1036 GRN 33005KT 3000 BR BKN003 OVC004 TEMPO 1500 DZ SCT002 BKN003
  • 221001Z AUTO VRB02KT 5000 BR OVC035 08/08 Q1036 WHT 33005KT 3000 BR BKN003 OVC004 TEMPO 1500 DZ SCT002 BKN003
  • 220941Z AUTO VRB02KT 3500 R21/P3000U BR FEW002 SCT011 BKN032 08/08 Q1036 YLO 33005KT 3000 BR BKN003 OVC004 TEMPO 1500 DZ SCT002 BKN003
  • 220926Z AUTO 36003KT 320V040 2800 R21/2800N BR SCT001 OVC002 08/08 Q1036 RED 33005KT 3000 BR BKN003 OVC004 TEMPO 1500 DZ SCT002 BKN003
  • 220855Z AUTO 33004KT 280V360 2600 R21/2600N BR OVC002 08/08 Q1036 AMB 30005KT 3000 BR BKN003 OVC004 TEMPO 1500 DZ SCT002 BKN003

TAF TAF EHKD
Valido dal 22 a 10 ore il 22 a 22 ore UTC


220938Z 2210/2222 30005KT 2000 BR BKN002
PROB30
TEMPO 2210/2217 3500 FEW002 SCT008 BKN020
BECMG 2213/2216 VRB03KT
BECMG 2217/2220 0800 FG



MetMap, La meteo Aeronautica in un colpo d'occhio ! - Copyright ORBIFLY Dicembre 2007 - Disclaimer

ORBIFLY MET'MAP TEAM :

Programmazione e sviluppo : Alexandra Zaïnal
Concezione : Baudouin d'Aumeries
Aiuto per la programmazione : Marc-Olivier Méhu
Supporto tecnico e logistico : Manuel Goepfert
Aiuto per la traduzione : Arnaldo La Scala

Contatto : metmap@orbifly.com




FONTI E CREDITI :

   NOAA